createdAt,value
2023-05-10T00:01:13.940Z,21.88
2023-05-10T00:03:41.495Z,21.02
2023-05-10T00:06:08.929Z,20.88
2023-05-10T00:08:36.206Z,22.25
2023-05-10T00:11:03.354Z,21.05
2023-05-10T00:13:30.714Z,21.05
2023-05-10T00:15:57.879Z,22.88
2023-05-10T00:18:25.249Z,21.88
2023-05-10T00:20:52.483Z,22.63
2023-05-10T00:23:19.646Z,21.70
2023-05-10T00:25:46.920Z,22.83
2023-05-10T00:28:14.095Z,22.05
2023-05-10T00:30:41.404Z,21.15
2023-05-10T00:33:08.698Z,21.45
2023-05-10T00:35:35.871Z,20.58
2023-05-10T00:38:03.069Z,20.58
2023-05-10T00:40:31.472Z,21.08
2023-05-10T00:42:59.480Z,19.40
2023-05-10T00:45:26.674Z,20.27
2023-05-10T00:47:56.139Z,20.73
2023-05-10T00:50:24.151Z,21.63
2023-05-10T00:52:51.632Z,20.58
2023-05-10T00:55:19.887Z,18.52
2023-05-10T00:57:47.315Z,19.05
2023-05-10T01:00:19.054Z,19.33
2023-05-10T01:02:47.457Z,20.10
2023-05-10T01:05:14.940Z,19.80
2023-05-10T01:07:42.384Z,18.90
2023-05-10T01:10:10.186Z,20.17
2023-05-10T01:12:38.936Z,19.08
2023-05-10T01:15:07.437Z,20.42
2023-05-10T01:17:35.047Z,20.63
2023-05-10T01:20:02.395Z,19.42
2023-05-10T01:22:29.479Z,20.25
2023-05-10T01:25:06.190Z,19.65
2023-05-10T01:27:49.513Z,19.83
2023-05-10T01:30:17.038Z,20.10
2023-05-10T01:32:47.654Z,20.55
2023-05-10T01:35:21.000Z,19.88
2023-05-10T01:38:01.429Z,20.88
2023-05-10T01:40:32.580Z,21.23
2023-05-10T01:43:10.007Z,19.88
2023-05-10T01:45:52.486Z,21.52
2023-05-10T01:48:20.598Z,21.73
2023-05-10T01:50:48.528Z,19.77
2023-05-10T01:53:19.504Z,20.95
2023-05-10T01:55:48.912Z,20.63
2023-05-10T01:58:18.888Z,22.33
2023-05-10T02:00:47.812Z,21.52
2023-05-10T02:06:45.157Z,21.25
2023-05-10T02:09:12.469Z,21.77
2023-05-10T02:11:40.417Z,22.85
2023-05-10T02:14:09.538Z,22.38
2023-05-10T02:16:37.281Z,23.65
2023-05-10T02:19:05.129Z,24.52
2023-05-10T02:21:33.752Z,25.05
2023-05-10T02:26:29.374Z,24.40
2023-05-10T02:28:58.086Z,24.65
2023-05-10T02:31:25.472Z,26.33
2023-05-10T02:33:53.174Z,26.58
2023-05-10T02:36:22.023Z,26.83
2023-05-10T02:38:49.955Z,26.90
2023-05-10T02:41:17.999Z,28.17
2023-05-10T02:43:45.928Z,25.95
2023-05-10T02:46:13.105Z,27.10
2023-05-10T02:48:40.456Z,27.70
2023-05-10T02:51:08.811Z,27.08
2023-05-10T02:53:37.453Z,27.83
2023-05-10T02:58:32.262Z,25.88
2023-05-10T03:00:59.413Z,28.38
2023-05-10T03:03:26.949Z,26.33
2023-05-10T03:05:56.706Z,25.15
2023-05-10T03:08:25.129Z,26.88
2023-05-10T03:10:59.719Z,25.90
2023-05-10T03:13:27.510Z,25.75
2023-05-10T03:16:11.891Z,24.75
2023-05-10T03:18:44.697Z,25.40
2023-05-10T03:21:13.766Z,23.98
2023-05-10T03:23:41.003Z,25.92
2023-05-10T03:26:09.051Z,24.75
2023-05-10T03:28:36.761Z,23.55
2023-05-10T03:31:06.610Z,23.25
2023-05-10T03:33:33.964Z,22.55
2023-05-10T03:36:01.318Z,22.42
2023-05-10T03:38:30.353Z,21.38
2023-05-10T03:40:57.913Z,20.60
2023-05-10T03:43:25.068Z,22.05
2023-05-10T03:45:52.395Z,22.38
2023-05-10T03:48:19.564Z,22.20
2023-05-10T03:50:46.759Z,21.33
2023-05-10T03:53:14.135Z,21.42
2023-05-10T03:55:41.310Z,20.13
2023-05-10T03:58:08.707Z,22.02
2023-05-10T04:00:36.195Z,22.08
2023-05-10T04:03:03.426Z,23.15
2023-05-10T04:05:31.004Z,22.13
2023-05-10T04:07:58.424Z,22.38
2023-05-10T04:10:25.650Z,22.58
2023-05-10T04:12:52.861Z,24.08
2023-05-10T04:15:20.229Z,23.25
2023-05-10T04:17:47.625Z,24.63
2023-05-10T04:20:15.397Z,21.75
2023-05-10T04:22:42.808Z,22.90
2023-05-10T04:25:10.196Z,22.33
2023-05-10T04:27:37.368Z,23.70
2023-05-10T04:30:04.679Z,26.05
2023-05-10T04:32:32.524Z,24.00
2023-05-10T04:35:00.133Z,23.80
2023-05-10T04:37:27.311Z,24.35
2023-05-10T04:39:54.502Z,26.63
2023-05-10T04:42:21.618Z,26.15
2023-05-10T04:44:48.738Z,25.10
2023-05-10T04:47:17.307Z,25.33
2023-05-10T04:49:44.482Z,27.60
2023-05-10T04:52:12.351Z,29.33
2023-05-10T04:54:39.456Z,27.00
2023-05-10T04:57:06.541Z,26.58
2023-05-10T04:59:33.681Z,25.60
2023-05-10T05:02:01.034Z,28.15
2023-05-10T05:04:28.474Z,27.05
2023-05-10T05:06:56.205Z,26.75
2023-05-10T05:09:23.336Z,27.42
2023-05-10T05:11:50.544Z,27.75
2023-05-10T05:14:17.713Z,28.23
2023-05-10T05:16:45.206Z,26.88
2023-05-10T05:19:13.582Z,27.58
2023-05-10T05:21:41.499Z,27.27
2023-05-10T05:24:08.825Z,27.52
2023-05-10T05:26:35.983Z,27.30
2023-05-10T05:29:03.195Z,27.95
2023-05-10T05:31:30.571Z,27.77
2023-05-10T05:33:57.935Z,25.13
2023-05-10T05:36:25.410Z,25.30
2023-05-10T05:38:52.544Z,26.75
2023-05-10T05:41:19.750Z,24.05
2023-05-10T05:43:46.882Z,25.90
2023-05-10T05:46:14.050Z,23.75
2023-05-10T05:48:41.195Z,25.00
2023-05-10T05:51:08.423Z,25.65
2023-05-10T05:53:35.785Z,23.13
2023-05-10T05:56:03.512Z,21.65
2023-05-10T05:58:30.660Z,22.73
2023-05-10T06:00:58.377Z,23.20
2023-05-10T06:03:25.724Z,22.50
2023-05-10T06:05:52.941Z,22.38
2023-05-10T06:08:20.205Z,20.23
2023-05-10T06:10:47.538Z,22.65
2023-05-10T06:13:14.851Z,21.55
2023-05-10T06:15:42.105Z,22.00
2023-05-10T06:18:09.293Z,19.90
2023-05-10T06:20:36.630Z,23.08
2023-05-10T06:23:03.797Z,24.67
2023-05-10T06:25:30.972Z,20.70
2023-05-10T06:27:58.987Z,20.42
2023-05-10T06:30:29.874Z,20.83
2023-05-10T06:32:57.686Z,21.50
2023-05-10T06:35:25.220Z,20.88
2023-05-10T06:37:52.709Z,18.80
2023-05-10T06:40:20.189Z,19.08
2023-05-10T06:42:47.815Z,18.02
2023-05-10T06:45:16.310Z,18.55
2023-05-10T06:47:43.775Z,18.02
2023-05-10T06:50:12.304Z,14.60
2023-05-10T06:52:39.852Z,15.48
2023-05-10T06:55:07.642Z,11.13
2023-05-10T06:57:34.872Z,11.88
2023-05-10T07:00:02.193Z,9.63
2023-05-10T07:02:30.904Z,9.13
2023-05-10T07:05:01.719Z,8.98
2023-05-10T07:07:30.848Z,8.18
2023-05-10T07:09:58.668Z,9.07
2023-05-10T07:12:26.597Z,7.60
2023-05-10T07:14:53.884Z,7.32
2023-05-10T07:17:21.313Z,8.02
2023-05-10T07:19:48.684Z,8.25
2023-05-10T07:22:16.439Z,7.90
2023-05-10T07:24:43.525Z,8.15
2023-05-10T07:27:10.960Z,8.25
2023-05-10T07:29:38.433Z,7.53
2023-05-10T07:32:05.978Z,6.85
2023-05-10T07:34:33.146Z,6.43
2023-05-10T07:37:00.656Z,6.10
2023-05-10T07:39:28.522Z,5.93
2023-05-10T07:41:56.146Z,5.47
2023-05-10T07:44:23.637Z,4.68
2023-05-10T07:46:50.995Z,5.80
2023-05-10T07:49:18.300Z,5.80
2023-05-10T07:51:45.488Z,7.22
2023-05-10T07:54:13.662Z,6.90
2023-05-10T07:56:45.781Z,6.22
2023-05-10T07:59:16.112Z,6.15
2023-05-10T08:01:43.491Z,5.28
2023-05-10T08:04:11.050Z,6.20
2023-05-10T08:06:38.268Z,5.93
2023-05-10T08:09:05.845Z,6.28
2023-05-10T08:11:34.929Z,6.47
2023-05-10T08:14:02.341Z,6.40
2023-05-10T08:16:29.881Z,7.13
2023-05-10T08:18:57.398Z,6.00
2023-05-10T08:21:24.727Z,6.43
2023-05-10T08:23:51.920Z,6.45
2023-05-10T08:26:19.034Z,6.80
2023-05-10T08:28:46.140Z,7.35
2023-05-10T08:31:13.812Z,6.82
2023-05-10T08:33:42.316Z,6.68
2023-05-10T08:36:11.109Z,6.60
2023-05-10T08:38:39.285Z,6.82
2023-05-10T08:41:07.057Z,7.05
2023-05-10T08:43:35.388Z,7.30
2023-05-10T08:46:05.901Z,6.57
2023-05-10T08:48:35.092Z,6.65
2023-05-10T08:51:03.284Z,6.45
2023-05-10T08:53:31.103Z,6.72
2023-05-10T08:55:58.833Z,6.20
2023-05-10T08:58:26.852Z,6.82
2023-05-10T09:01:13.484Z,6.38
2023-05-10T09:03:40.840Z,6.85
2023-05-10T09:06:08.283Z,6.85
2023-05-10T09:08:35.766Z,6.82
2023-05-10T09:11:03.857Z,6.03
2023-05-10T09:13:50.334Z,6.25
2023-05-10T09:16:22.005Z,6.28
2023-05-10T09:18:50.779Z,6.55
2023-05-10T09:21:18.166Z,5.65
2023-05-10T09:23:48.221Z,5.97
2023-05-10T09:26:16.367Z,6.40
2023-05-10T09:28:53.745Z,6.80
2023-05-10T09:31:21.308Z,6.15
2023-05-10T09:33:49.957Z,6.40
2023-05-10T09:38:51.889Z,6.32
2023-05-10T09:43:47.793Z,6.50
2023-05-10T09:46:18.088Z,6.15
2023-05-10T09:48:46.540Z,6.40
2023-05-10T09:51:27.970Z,6.35
2023-05-10T09:54:14.784Z,6.53
2023-05-10T09:56:41.998Z,6.57
2023-05-10T09:59:12.328Z,6.68
2023-05-10T10:01:40.032Z,6.03
2023-05-10T10:04:08.216Z,6.00
2023-05-10T10:06:39.352Z,6.57
2023-05-10T10:09:10.866Z,6.93
2023-05-10T10:11:38.690Z,5.50
2023-05-10T10:14:06.272Z,5.75
2023-05-10T10:16:33.877Z,5.70
2023-05-10T10:19:01.297Z,5.50
2023-05-10T10:21:28.895Z,5.13
2023-05-10T10:23:56.348Z,4.97
2023-05-10T10:26:23.804Z,5.15
2023-05-10T10:29:01.819Z,5.53
2023-05-10T10:31:43.471Z,5.35
2023-05-10T10:34:14.101Z,5.50
2023-05-10T10:36:48.147Z,4.20
2023-05-10T10:39:15.974Z,4.30
2023-05-10T10:41:56.445Z,4.13
2023-05-10T10:44:23.912Z,4.03
2023-05-10T10:47:01.525Z,4.47
2023-05-10T10:49:28.881Z,4.68
2023-05-10T10:52:14.541Z,4.40
2023-05-10T10:54:42.970Z,3.80
2023-05-10T10:59:37.476Z,4.40
2023-05-10T11:02:04.545Z,4.30
2023-05-10T11:04:43.614Z,3.97
2023-05-10T11:07:24.054Z,4.65
2023-05-10T11:09:51.428Z,3.88
2023-05-10T11:12:18.597Z,4.18
2023-05-10T11:14:51.410Z,4.30
2023-05-10T11:17:26.000Z,3.28
2023-05-10T11:20:11.820Z,3.90
2023-05-10T11:22:52.700Z,4.00
2023-05-10T11:25:20.018Z,4.45
2023-05-10T11:27:49.207Z,4.32
2023-05-10T11:30:16.585Z,3.72
2023-05-10T11:32:44.140Z,3.80
2023-05-10T11:35:14.576Z,4.32
2023-05-10T11:37:44.823Z,3.83
2023-05-10T11:40:12.362Z,4.03
2023-05-10T11:42:39.805Z,3.85
2023-05-10T11:45:07.421Z,3.88
2023-05-10T11:47:36.677Z,3.63
2023-05-10T11:50:06.767Z,4.00
2023-05-10T11:52:38.525Z,3.55
2023-05-10T11:55:06.171Z,3.10
2023-05-10T11:57:33.409Z,2.70
2023-05-10T12:00:00.831Z,2.92
2023-05-10T12:02:28.192Z,2.80
2023-05-10T12:04:56.870Z,3.70
2023-05-10T12:07:24.105Z,3.30
2023-05-10T12:10:07.499Z,3.13
2023-05-10T12:12:43.537Z,3.97
2023-05-10T12:15:14.508Z,3.42
2023-05-10T12:17:43.441Z,3.60
2023-05-10T12:20:18.251Z,3.60
2023-05-10T12:22:46.248Z,3.10
2023-05-10T12:25:13.431Z,3.70
2023-05-10T12:27:40.609Z,3.95
2023-05-10T12:30:08.104Z,4.38
2023-05-10T12:32:44.367Z,4.95
2023-05-10T12:35:11.588Z,5.03
2023-05-10T12:37:40.191Z,4.68
2023-05-10T12:40:09.094Z,4.63
2023-05-10T12:42:39.850Z,5.00
2023-05-10T12:45:07.754Z,5.30
2023-05-10T12:47:35.371Z,5.55
2023-05-10T12:50:03.718Z,5.63
2023-05-10T12:52:31.183Z,5.68
2023-05-10T12:54:58.400Z,5.57
2023-05-10T12:57:25.569Z,6.22
2023-05-10T12:59:53.276Z,5.82
2023-05-10T13:02:21.477Z,5.03
2023-05-10T13:04:52.082Z,5.30
2023-05-10T13:07:19.577Z,6.88
2023-05-10T13:09:46.818Z,6.07
2023-05-10T13:12:14.078Z,5.00
2023-05-10T13:14:41.757Z,5.55
2023-05-10T13:17:09.089Z,4.75
2023-05-10T13:19:36.359Z,5.25
2023-05-10T13:22:03.600Z,4.80
2023-05-10T13:24:32.577Z,5.25
2023-05-10T13:26:59.871Z,5.05
2023-05-10T13:29:27.066Z,5.32
2023-05-10T13:31:54.382Z,5.35
2023-05-10T13:34:21.788Z,6.03
2023-05-10T13:36:49.909Z,6.03
2023-05-10T13:39:17.074Z,5.88
2023-05-10T13:41:44.265Z,5.88
2023-05-10T13:44:13.822Z,7.32
2023-05-10T13:46:41.157Z,7.45
2023-05-10T13:49:08.376Z,7.28
2023-05-10T13:51:36.005Z,7.45
2023-05-10T13:54:04.334Z,7.40
2023-05-10T13:56:31.497Z,7.88
2023-05-10T13:59:01.802Z,8.00
2023-05-10T14:01:29.007Z,7.65
2023-05-10T14:07:19.447Z,8.52
2023-05-10T14:09:46.585Z,8.30
2023-05-10T14:12:15.496Z,8.60
2023-05-10T14:14:42.673Z,8.13
2023-05-10T14:17:28.401Z,7.80
2023-05-10T14:19:55.799Z,8.30
2023-05-10T14:22:23.623Z,8.45
2023-05-10T14:25:11.784Z,8.10
2023-05-10T14:27:38.899Z,8.18
2023-05-10T14:30:06.362Z,7.47
2023-05-10T14:32:33.783Z,8.07
2023-05-10T14:35:01.169Z,7.80
2023-05-10T14:37:28.552Z,8.48
2023-05-10T14:39:55.824Z,8.27
2023-05-10T14:42:22.983Z,8.88
2023-05-10T14:44:50.113Z,8.43
2023-05-10T14:47:17.289Z,7.10
2023-05-10T14:49:44.474Z,6.38
2023-05-10T14:52:13.125Z,7.15
2023-05-10T14:54:40.405Z,6.45
2023-05-10T14:57:08.123Z,6.43
2023-05-10T14:59:35.467Z,6.40
2023-05-10T15:02:04.187Z,6.57
2023-05-10T15:04:31.920Z,7.10
2023-05-10T15:07:00.462Z,7.60
2023-05-10T15:09:28.742Z,6.05
2023-05-10T15:11:56.912Z,5.88
2023-05-10T15:14:24.511Z,5.97
2023-05-10T15:16:51.726Z,5.88
2023-05-10T15:19:18.856Z,6.53
2023-05-10T15:21:46.122Z,7.07
2023-05-10T15:24:13.282Z,5.97
2023-05-10T15:26:40.453Z,5.68
2023-05-10T15:29:07.594Z,5.55
2023-05-10T15:31:36.972Z,5.63
2023-05-10T15:34:04.311Z,5.93
2023-05-10T15:36:33.179Z,8.63
2023-05-10T15:39:00.634Z,6.47
2023-05-10T15:41:27.750Z,6.32
2023-05-10T15:43:55.451Z,6.53
2023-05-10T15:46:22.843Z,6.47
2023-05-10T15:48:50.206Z,6.82
2023-05-10T15:51:17.365Z,6.80
2023-05-10T15:57:13.578Z,6.30
2023-05-10T15:59:40.714Z,6.55
2023-05-10T16:02:08.768Z,5.00
2023-05-10T16:04:36.187Z,5.93
2023-05-10T16:07:03.473Z,5.97
2023-05-10T16:09:30.594Z,6.82
2023-05-10T16:11:57.798Z,6.78
2023-05-10T16:14:24.932Z,5.65
2023-05-10T16:16:52.359Z,6.30
2023-05-10T16:19:19.667Z,7.07
2023-05-10T16:21:48.437Z,5.80
2023-05-10T16:24:15.823Z,8.63
2023-05-10T16:26:43.319Z,6.20
2023-05-10T16:29:10.776Z,5.50
2023-05-10T16:31:37.971Z,6.60
2023-05-10T16:34:05.369Z,8.38
2023-05-10T16:36:33.333Z,6.07
2023-05-10T16:39:01.031Z,5.88
2023-05-10T16:41:28.338Z,5.57
2023-05-10T16:43:57.536Z,5.93
2023-05-10T16:46:25.001Z,6.50
2023-05-10T16:48:56.077Z,6.47
2023-05-10T16:51:23.252Z,6.22
2023-05-10T16:53:50.529Z,5.55
2023-05-10T16:56:22.248Z,6.38
2023-05-10T16:58:50.073Z,5.82
2023-05-10T17:01:17.665Z,6.38
2023-05-10T17:03:44.943Z,6.88
2023-05-10T17:06:12.773Z,6.03
2023-05-10T17:08:39.899Z,6.10
2023-05-10T17:11:07.186Z,5.88
2023-05-10T17:13:34.343Z,6.53
2023-05-10T17:16:05.084Z,6.68
2023-05-10T17:18:32.350Z,6.47
2023-05-10T17:20:59.747Z,6.65
2023-05-10T17:23:27.160Z,6.30
2023-05-10T17:25:54.299Z,6.30
2023-05-10T17:28:21.549Z,7.00
2023-05-10T17:30:55.719Z,6.50
2023-05-10T17:33:22.883Z,6.68
2023-05-10T17:35:50.603Z,7.13
2023-05-10T17:38:17.913Z,6.60
2023-05-10T17:40:45.108Z,6.70
2023-05-10T17:43:12.283Z,7.00
2023-05-10T17:45:39.441Z,6.03
2023-05-10T17:48:07.783Z,7.40
2023-05-10T17:50:35.444Z,6.97
2023-05-10T17:53:03.244Z,7.00
2023-05-10T17:55:30.859Z,6.28
2023-05-10T17:57:59.585Z,7.68
2023-05-10T18:00:27.273Z,8.43
2023-05-10T18:02:54.384Z,7.97
2023-05-10T18:05:21.968Z,6.97
2023-05-10T18:07:49.549Z,7.40
2023-05-10T18:10:19.588Z,7.82
2023-05-10T18:12:47.372Z,6.90
2023-05-10T18:15:14.818Z,7.22
2023-05-10T18:17:42.023Z,7.43
2023-05-10T18:20:09.658Z,7.00
2023-05-10T18:22:37.101Z,7.15
2023-05-10T18:25:05.060Z,6.93
2023-05-10T18:27:32.636Z,6.82
2023-05-10T18:29:59.803Z,6.60
2023-05-10T18:32:27.985Z,6.47
2023-05-10T18:34:56.590Z,7.68
2023-05-10T18:39:51.357Z,6.10
2023-05-10T18:42:20.361Z,6.88
2023-05-10T18:44:47.594Z,6.88
2023-05-10T18:47:15.073Z,7.45
2023-05-10T18:49:42.526Z,8.52
2023-05-10T18:52:10.709Z,6.70
2023-05-10T18:54:37.869Z,8.35
2023-05-10T18:57:05.081Z,7.35
2023-05-10T18:59:32.311Z,6.97
2023-05-10T19:01:59.499Z,7.13
2023-05-10T19:04:26.962Z,7.30
2023-05-10T19:06:56.313Z,6.88
2023-05-10T19:09:27.213Z,7.30
2023-05-10T19:11:56.673Z,7.80
2023-05-10T19:14:25.800Z,8.50
2023-05-10T19:16:53.234Z,7.43
2023-05-10T19:19:21.216Z,8.38
2023-05-10T19:21:48.520Z,7.40
2023-05-10T19:24:15.764Z,7.85
2023-05-10T19:26:43.057Z,6.40
2023-05-10T19:29:10.432Z,7.32
2023-05-10T19:31:37.810Z,7.55
2023-05-10T19:34:05.511Z,6.57
2023-05-10T19:36:34.216Z,7.80
2023-05-10T19:39:01.479Z,6.72
2023-05-10T19:41:28.669Z,8.35
2023-05-10T19:43:55.886Z,7.95
2023-05-10T19:46:23.069Z,11.27
2023-05-10T19:48:51.865Z,7.22
2023-05-10T19:51:19.256Z,7.25
2023-05-10T19:53:46.950Z,7.22
2023-05-10T19:56:14.359Z,7.40
2023-05-10T19:58:43.141Z,7.93
2023-05-10T20:01:10.626Z,7.97
2023-05-10T20:03:38.320Z,6.53
2023-05-10T20:06:06.735Z,8.32
2023-05-10T20:08:33.875Z,7.75
2023-05-10T20:11:02.722Z,8.05
2023-05-10T20:13:30.035Z,8.00
2023-05-10T20:15:57.661Z,8.38
2023-05-10T20:18:25.328Z,8.02
2023-05-10T20:21:32.259Z,8.07
2023-05-10T20:28:02.499Z,9.70
2023-05-10T20:30:30.714Z,9.15
2023-05-10T20:32:57.998Z,8.65
2023-05-10T20:36:04.097Z,8.77
2023-05-10T20:39:08.946Z,8.88
2023-05-10T20:45:05.206Z,8.93
2023-05-10T20:47:51.326Z,9.90
2023-05-10T20:50:18.999Z,8.88
2023-05-10T20:52:46.826Z,9.48
2023-05-10T20:55:13.993Z,8.88
2023-05-10T20:57:41.194Z,9.63
2023-05-10T21:00:09.545Z,9.63
2023-05-10T21:02:36.770Z,10.15
2023-05-10T21:05:04.092Z,9.65
2023-05-10T21:07:32.806Z,9.32
2023-05-10T21:09:59.940Z,10.57
2023-05-10T21:12:27.292Z,10.82
2023-05-10T21:14:54.451Z,11.00
2023-05-10T21:17:21.589Z,11.07
2023-05-10T21:19:48.758Z,11.13
2023-05-10T21:22:15.994Z,10.48
2023-05-10T21:24:43.255Z,10.98
2023-05-10T21:27:10.458Z,10.45
2023-05-10T21:29:39.182Z,10.20
2023-05-10T21:32:06.576Z,9.98
2023-05-10T21:34:33.884Z,10.40
2023-05-10T21:37:02.217Z,10.35
2023-05-10T21:39:29.436Z,11.93
2023-05-10T21:41:57.007Z,18.83
2023-05-10T21:44:24.237Z,12.90
2023-05-10T21:46:51.490Z,11.90
2023-05-10T21:49:19.091Z,14.68
2023-05-10T21:51:46.458Z,11.40
2023-05-10T21:54:13.630Z,11.70
2023-05-10T21:56:40.889Z,10.93
2023-05-10T21:59:08.448Z,10.30
2023-05-10T22:01:35.918Z,10.73
2023-05-10T22:04:03.464Z,11.05
2023-05-10T22:06:31.156Z,10.68
2023-05-10T22:08:58.303Z,11.73
2023-05-10T22:11:26.053Z,12.15
2023-05-10T22:13:53.487Z,11.38
2023-05-10T22:16:20.835Z,11.95
2023-05-10T22:18:48.059Z,10.57
2023-05-10T22:21:15.371Z,10.70
2023-05-10T22:23:42.738Z,10.68
2023-05-10T22:26:10.123Z,10.52
2023-05-10T22:28:37.311Z,10.57
2023-05-10T22:31:04.529Z,10.60
2023-05-10T22:33:31.698Z,11.13
2023-05-10T22:35:58.862Z,11.23
2023-05-10T22:38:26.235Z,11.15
2023-05-10T22:40:53.396Z,11.32
2023-05-10T22:43:20.618Z,11.35
2023-05-10T22:46:06.479Z,11.30
2023-05-10T22:48:34.899Z,11.48
2023-05-10T22:51:02.145Z,10.65
2023-05-10T22:53:29.272Z,11.00
2023-05-10T22:55:56.516Z,10.98
2023-05-10T22:58:23.930Z,11.13
2023-05-10T23:00:51.079Z,11.43
2023-05-10T23:03:18.481Z,11.13
2023-05-10T23:05:45.786Z,11.68
2023-05-10T23:08:13.489Z,11.63
2023-05-10T23:10:40.845Z,11.30
2023-05-10T23:13:08.061Z,11.20
2023-05-10T23:15:36.274Z,12.10
2023-05-10T23:18:05.787Z,10.93
2023-05-10T23:20:33.090Z,11.60
2023-05-10T23:23:00.238Z,11.20
2023-05-10T23:25:27.367Z,11.48
2023-05-10T23:27:54.535Z,10.45
2023-05-10T23:30:21.766Z,11.30
2023-05-10T23:32:48.951Z,11.15
2023-05-10T23:35:16.337Z,12.23
2023-05-10T23:37:43.500Z,11.18
2023-05-10T23:40:10.774Z,11.23
2023-05-10T23:42:38.047Z,11.30
2023-05-10T23:45:05.371Z,12.00
2023-05-10T23:47:32.718Z,11.90
2023-05-10T23:49:59.911Z,11.32
2023-05-10T23:52:27.104Z,13.05
2023-05-10T23:54:54.669Z,11.82
2023-05-10T23:57:21.918Z,11.43
2023-05-10T23:59:49.309Z,10.85
